Time;durP1;ratioP1;P1;durP2;ratioP2;P2;SDS_P1;SDS_P2;PMS_P1;PMS_P2;Temp;Humidity;BMP_temperature;BMP_pressure;BME280_temperature;BME280_humidity;BME280_pressure;Samples;Min_cycle;Max_cycle;Signal;HPM_P1;HPM_P2
2022/05/11 00:00:13;;;;;;;17.37;9.67;;;14.20;99.90;;;;;;5013529;28;20334;-72
2022/05/11 00:02:39;;;;;;;18.83;10.83;;;14.20;99.90;;;;;;4996172;28;20764;-72
2022/05/11 00:05:12;;;;;;;15.33;10.57;;;14.20;99.90;;;;;;5013500;28;20292;-72
2022/05/11 00:07:37;;;;;;;17.93;11.27;;;14.20;99.90;;;;;;5013711;28;20049;-72
2022/05/11 00:10:12;;;;;;;16.47;9.10;;;14.20;99.90;;;;;;5012113;28;20289;-72
2022/05/11 00:12:43;;;;;;;14.27;10.07;;;14.20;99.90;;;;;;5012789;28;20061;-72
2022/05/11 00:15:14;;;;;;;17.50;10.43;;;14.20;99.90;;;;;;5014178;28;20483;-72
2022/05/11 00:17:40;;;;;;;15.07;10.73;;;14.20;99.90;;;;;;5018096;28;20347;-73
2022/05/11 00:20:07;;;;;;;15.60;11.20;;;14.20;99.90;;;;;;5017319;28;20621;-72
2022/05/11 00:22:34;;;;;;;16.33;10.47;;;14.20;99.90;;;;;;5016522;28;20204;-73
2022/05/11 00:25:00;;;;;;;17.57;10.80;;;14.20;99.90;;;;;;5017012;28;20300;-73
2022/05/11 00:27:26;;;;;;;14.80;9.67;;;14.20;99.90;;;;;;5017446;28;20304;-73
2022/05/11 00:29:52;;;;;;;16.73;10.93;;;14.20;99.90;;;;;;5049225;28;20764;-72
2022/05/11 00:32:17;;;;;;;16.03;10.73;;;14.20;99.90;;;;;;5016934;28;20053;-72
2022/05/11 00:34:43;;;;;;;17.17;10.57;;;14.20;99.90;;;;;;5016058;28;20081;-72
2022/05/11 00:37:09;;;;;;;18.20;12.63;;;14.20;99.90;;;;;;5017009;28;20049;-72
2022/05/11 00:39:35;;;;;;;22.03;13.30;;;14.20;99.90;;;;;;4999553;28;20042;-73
2022/05/11 00:42:03;;;;;;;15.37;11.40;;;14.20;99.90;;;;;;5017491;28;20057;-72
2022/05/11 00:44:29;;;;;;;16.40;11.83;;;14.20;99.90;;;;;;5016753;28;20293;-73
2022/05/11 00:47:03;;;;;;;18.87;11.77;;;14.20;99.90;;;;;;5016463;28;20289;-72
2022/05/11 00:49:34;;;;;;;19.52;12.40;;;14.20;99.90;;;;;;5017070;28;20056;-72
2022/05/11 00:52:17;;;;;;;18.23;12.23;;;14.20;99.90;;;;;;5016705;28;20068;-72
2022/05/11 00:54:51;;;;;;;19.53;10.87;;;14.20;99.90;;;;;;5016663;28;20281;-72
2022/05/11 00:57:36;;;;;;;18.30;11.70;;;14.20;99.90;;;;;;5015866;28;20288;-72
2022/05/11 01:00:06;;;;;;;18.23;12.77;;;14.20;99.90;;;;;;5017358;28;20288;-73
2022/05/11 01:02:32;;;;;;;18.53;11.33;;;14.20;99.90;;;;;;5017365;28;20049;-72
2022/05/11 01:05:02;;;;;;;16.07;11.60;;;14.20;99.90;;;;;;5017011;28;20586;-73
2022/05/11 01:07:29;;;;;;;18.73;12.60;;;14.20;99.90;;;;;;5015197;28;20331;-73
2022/05/11 01:09:54;;;;;;;19.27;11.77;;;14.20;99.90;;;;;;5016343;28;20767;-73
2022/05/11 01:12:23;;;;;;;16.07;10.67;;;14.20;99.90;;;;;;5016369;28;20285;-73
2022/05/11 01:14:54;;;;;;;17.70;10.90;;;14.20;99.90;;;;;;5016847;28;20053;-73
2022/05/11 01:17:24;;;;;;;17.10;11.17;;;14.20;99.90;;;;;;5016869;28;20300;-73
2022/05/11 01:19:50;;;;;;;15.47;10.17;;;14.20;99.90;;;;;;5016706;28;20281;-73
2022/05/11 01:22:15;;;;;;;21.53;12.10;;;14.20;99.90;;;;;;5016239;28;20283;-73
2022/05/11 01:24:43;;;;;;;14.70;10.53;;;14.20;99.90;;;;;;5016841;28;20128;-73
2022/05/11 01:27:43;;;;;;;13.97;9.97;;;14.20;99.90;;;;;;5014677;28;20478;-73
2022/05/11 01:30:20;;;;;;;16.43;10.20;;;14.20;99.90;;;;;;4993733;28;20645;-73
2022/05/11 01:32:50;;;;;;;15.63;9.40;;;14.20;99.90;;;;;;5016510;28;20269;-73
2022/05/11 01:35:53;;;;;;;15.03;9.80;;;14.20;99.90;;;;;;5015037;28;20321;-73
2022/05/11 01:38:43;;;;;;;16.10;9.77;;;14.20;99.90;;;;;;4958685;28;20315;-72
2022/05/11 01:41:23;;;;;;;13.67;9.93;;;14.20;99.90;;;;;;5013820;28;20285;-72
2022/05/11 01:43:50;;;;;;;14.93;9.00;;;14.20;99.90;;;;;;5016076;28;20269;-73
2022/05/11 01:46:17;;;;;;;14.50;9.30;;;14.10;99.90;;;;;;5016497;28;20304;-73
2022/05/11 01:48:44;;;;;;;14.73;9.20;;;14.10;99.90;;;;;;5015668;28;20283;-73
2022/05/11 01:51:11;;;;;;;16.67;9.67;;;14.10;99.90;;;;;;5016287;28;20280;-73
2022/05/11 01:53:37;;;;;;;12.13;9.67;;;14.10;99.90;;;;;;5014382;28;20335;-73
2022/05/11 01:56:03;;;;;;;12.83;9.20;;;14.10;99.90;;;;;;5016050;28;20287;-73
2022/05/11 01:58:30;;;;;;;13.70;9.00;;;14.10;99.90;;;;;;5014377;28;20344;-73
2022/05/11 02:00:56;;;;;;;14.27;9.00;;;14.10;99.90;;;;;;5015445;28;20285;-73
2022/05/11 02:03:22;;;;;;;15.40;9.70;;;14.10;99.90;;;;;;5015425;28;20740;-73
2022/05/11 02:08:34;;;;;;;15.10;10.23;;;14.10;99.90;;;;;;5015335;28;20046;-73
2022/05/11 02:11:00;;;;;;;13.80;10.23;;;14.10;99.90;;;;;;5015029;28;20693;-73
2022/05/11 02:13:28;;;;;;;14.20;10.07;;;14.10;99.90;;;;;;5015009;28;20372;-73
2022/05/11 02:15:54;;;;;;;15.23;9.77;;;14.10;99.90;;;;;;5015657;28;20299;-73
2022/05/11 02:18:20;;;;;;;14.00;9.90;;;14.10;99.90;;;;;;5015072;28;20297;-73
2022/05/11 02:20:46;;;;;;;14.77;10.00;;;14.10;99.90;;;;;;5015032;28;20671;-71
2022/05/11 02:23:16;;;;;;;14.47;10.27;;;14.10;99.90;;;;;;5013981;28;20050;-73
2022/05/11 02:25:44;;;;;;;12.83;9.07;;;14.10;99.90;;;;;;5014963;28;20176;-73
2022/05/11 02:28:11;;;;;;;11.90;8.70;;;14.10;99.90;;;;;;5013944;28;20740;-73
2022/05/11 02:30:37;;;;;;;13.13;8.80;;;14.00;99.90;;;;;;5014930;28;20343;-73
2022/05/11 02:33:02;;;;;;;10.80;8.50;;;14.00;99.90;;;;;;5014890;28;20283;-73
2022/05/11 02:35:28;;;;;;;15.83;8.20;;;14.00;99.90;;;;;;5013874;28;20364;-73
2022/05/11 02:37:57;;;;;;;14.47;9.47;;;14.10;99.90;;;;;;5015077;28;20458;-73
2022/05/11 02:40:27;;;;;;;17.23;10.10;;;14.00;99.90;;;;;;5014743;28;20050;-73
2022/05/11 02:42:53;;;;;;;16.27;9.47;;;14.00;99.90;;;;;;5013526;28;20284;-72
2022/05/11 02:45:20;;;;;;;13.87;9.00;;;14.00;99.90;;;;;;5015408;28;20339;-73
2022/05/11 02:47:46;;;;;;;13.97;9.20;;;14.00;99.90;;;;;;5015133;28;20589;-73
2022/05/11 02:50:15;;;;;;;13.57;9.17;;;14.00;99.90;;;;;;5047410;28;20707;-72
2022/05/11 02:52:40;;;;;;;13.60;9.23;;;14.00;99.90;;;;;;5014700;28;20614;-73
2022/05/11 02:55:07;;;;;;;12.27;8.93;;;14.00;99.90;;;;;;5014941;28;20439;-73
2022/05/11 02:57:32;;;;;;;15.73;9.10;;;14.00;99.90;;;;;;5014245;28;20053;-73
2022/05/11 02:59:59;;;;;;;13.67;8.37;;;14.00;99.90;;;;;;5013399;28;20276;-73
2022/05/11 03:02:25;;;;;;;13.30;8.93;;;13.90;99.90;;;;;;5014417;28;20057;-72
2022/05/11 03:04:51;;;;;;;13.30;8.83;;;13.90;99.90;;;;;;5013583;28;20285;-73
2022/05/11 03:07:18;;;;;;;12.13;8.30;;;13.90;99.90;;;;;;5013790;28;20604;-73
2022/05/11 03:09:44;;;;;;;11.73;9.07;;;14.00;99.90;;;;;;5014188;28;20421;-73
2022/05/11 03:12:11;;;;;;;12.17;8.10;;;13.90;99.90;;;;;;5014167;28;20285;-73
2022/05/11 03:14:38;;;;;;;15.73;8.63;;;13.90;99.90;;;;;;5014031;28;20133;-73
2022/05/11 03:17:04;;;;;;;14.07;8.53;;;13.90;99.90;;;;;;5013781;28;20695;-73
2022/05/11 03:19:30;;;;;;;11.50;7.20;;;13.90;99.90;;;;;;4997007;28;20297;-73
2022/05/11 03:21:57;;;;;;;13.00;8.40;;;13.90;99.90;;;;;;5012850;28;20633;-73
2022/05/11 03:24:23;;;;;;;15.17;8.47;;;13.90;99.90;;;;;;5014287;28;20104;-73
2022/05/11 03:26:49;;;;;;;10.53;7.43;;;13.90;99.90;;;;;;5013967;28;20697;-73
2022/05/11 03:29:14;;;;;;;13.97;7.63;;;13.90;99.90;;;;;;5030032;28;20331;-73
2022/05/11 03:31:40;;;;;;;13.40;7.77;;;13.90;99.90;;;;;;5013941;28;20120;-73
2022/05/11 03:36:51;;;;;;;;;;;13.90;99.90;;;;;;5015048;28;20046;-73
2022/05/11 03:39:18;;;;;;;14.50;7.10;;;13.90;99.90;;;;;;5013784;28;20214;-73
2022/05/11 03:41:47;;;;;;;13.03;6.47;;;13.90;99.90;;;;;;5013774;28;20046;-73
2022/05/11 03:44:14;;;;;;;11.10;6.77;;;13.90;99.90;;;;;;5014499;28;20281;-73
2022/05/11 03:46:40;;;;;;;10.03;7.17;;;13.90;99.90;;;;;;5013756;28;20312;-73
2022/05/11 03:49:06;;;;;;;14.93;7.13;;;13.90;99.90;;;;;;5014187;28;20277;-73
2022/05/11 03:51:32;;;;;;;10.90;6.77;;;13.90;99.90;;;;;;5013875;28;20280;-73
2022/05/11 03:53:58;;;;;;;12.63;7.10;;;13.90;99.90;;;;;;5013589;28;20606;-73
2022/05/11 03:56:23;;;;;;;17.43;7.07;;;13.90;99.90;;;;;;5013793;28;20046;-73
2022/05/11 03:58:49;;;;;;;14.27;7.27;;;13.90;99.90;;;;;;5013116;28;20045;-73
2022/05/11 04:01:15;;;;;;;14.20;6.03;;;13.80;99.90;;;;;;5013571;28;20049;-73
2022/05/11 04:03:41;;;;;;;11.50;6.33;;;13.90;99.90;;;;;;5012383;28;20058;-73
2022/05/11 04:06:07;;;;;;;12.83;6.30;;;13.80;99.90;;;;;;5013519;28;20056;-73
2022/05/11 04:08:34;;;;;;;12.03;6.17;;;13.80;99.90;;;;;;5013569;28;20276;-73
2022/05/11 04:10:59;;;;;;;14.37;6.47;;;13.80;99.90;;;;;;4996029;28;20318;-73
2022/05/11 04:13:25;;;;;;;13.37;6.33;;;13.80;99.90;;;;;;5013423;28;20291;-73
2022/05/11 04:15:52;;;;;;;12.77;6.07;;;13.80;99.90;;;;;;5013659;28;20057;-74
2022/05/11 04:18:19;;;;;;;13.67;6.10;;;13.80;99.90;;;;;;5013365;28;20050;-72
2022/05/11 04:20:45;;;;;;;12.40;6.03;;;13.80;99.90;;;;;;5013335;28;20285;-72
2022/05/11 04:23:11;;;;;;;14.13;5.80;;;13.80;99.90;;;;;;5012674;28;20338;-73
2022/05/11 04:25:38;;;;;;;13.17;5.60;;;13.80;99.90;;;;;;5013166;28;20139;-72
2022/05/11 04:28:07;;;;;;;11.23;5.23;;;13.80;99.90;;;;;;5013230;28;20363;-72
2022/05/11 04:30:33;;;;;;;15.33;5.73;;;13.90;99.90;;;;;;5013027;28;20796;-72
2022/05/11 04:32:59;;;;;;;12.23;5.63;;;13.80;99.90;;;;;;5011996;28;20324;-72
2022/05/11 04:35:30;;;;;;;11.40;6.30;;;13.80;99.90;;;;;;5013726;28;20366;-72
2022/05/11 04:37:59;;;;;;;16.83;7.57;;;13.90;99.90;;;;;;5013751;28;20041;-72
2022/05/11 04:40:26;;;;;;;12.50;6.40;;;13.90;99.90;;;;;;5013262;28;20288;-73
2022/05/11 04:42:52;;;;;;;12.17;6.83;;;13.90;99.90;;;;;;5013143;28;20632;-73
2022/05/11 04:45:18;;;;;;;12.80;6.07;;;13.90;99.90;;;;;;5013245;28;20371;-72
2022/05/11 04:47:44;;;;;;;12.70;6.40;;;13.90;99.90;;;;;;5013163;28;20744;-72
2022/05/11 04:50:12;;;;;;;13.77;6.10;;;13.90;99.90;;;;;;5013650;28;20077;-72
2022/05/11 04:52:38;;;;;;;14.47;6.10;;;14.00;99.90;;;;;;5013112;28;20360;-72
2022/05/11 04:55:05;;;;;;;11.23;5.40;;;14.00;99.90;;;;;;5013358;28;20285;-72
2022/05/11 04:57:31;;;;;;;10.73;6.00;;;14.00;99.90;;;;;;5013195;28;20042;-72
2022/05/11 04:59:57;;;;;;;11.90;6.13;;;14.00;99.90;;;;;;5011800;28;20688;-73
2022/05/11 05:02:25;;;;;;;14.03;6.00;;;14.10;99.90;;;;;;5013312;28;20293;-73
2022/05/11 05:04:51;;;;;;;12.83;5.77;;;14.10;99.90;;;;;;5016568;28;20513;-73
2022/05/11 05:07:18;;;;;;;17.23;6.10;;;14.10;99.90;;;;;;5016456;28;20316;-73
2022/05/11 05:09:44;;;;;;;12.27;6.17;;;14.10;99.90;;;;;;5017065;28;20284;-73
2022/05/11 05:12:11;;;;;;;15.77;6.73;;;14.20;99.90;;;;;;5016095;28;20645;-73
2022/05/11 05:14:38;;;;;;;16.97;5.70;;;14.20;99.90;;;;;;5047866;28;20423;-73
2022/05/11 05:17:06;;;;;;;11.97;5.97;;;14.20;99.90;;;;;;5048367;28;20307;-73
2022/05/11 05:19:32;;;;;;;9.60;5.43;;;14.20;99.90;;;;;;5016138;28;20307;-73
2022/05/11 05:22:02;;;;;;;11.60;5.70;;;14.20;99.90;;;;;;5048268;28;20335;-73
2022/05/11 05:24:29;;;;;;;10.60;5.00;;;14.30;99.90;;;;;;5016503;28;20296;-72
2022/05/11 05:26:55;;;;;;;13.67;5.60;;;14.30;99.90;;;;;;5016278;28;20781;-73
2022/05/11 05:32:05;;;;;;;14.97;6.17;;;14.30;99.90;;;;;;5016653;28;20421;-74
2022/05/11 05:34:31;;;;;;;13.33;6.50;;;14.40;99.90;;;;;;5015983;28;20280;-73
2022/05/11 05:36:57;;;;;;;16.97;5.73;;;14.40;99.90;;;;;;5016716;28;20356;-73
2022/05/11 05:39:22;;;;;;;14.07;5.33;;;14.50;99.90;;;;;;5016118;28;20033;-73
2022/05/11 05:41:48;;;;;;;16.27;6.13;;;14.50;99.90;;;;;;5016119;28;20175;-72
2022/05/11 05:44:14;;;;;;;14.83;5.60;;;14.50;99.90;;;;;;5016137;28;20452;-72
2022/05/11 05:46:39;;;;;;;16.77;5.97;;;14.60;99.90;;;;;;5015813;28;20441;-72
2022/05/11 05:49:05;;;;;;;16.07;6.27;;;14.60;99.90;;;;;;5015755;28;20052;-73
2022/05/11 05:51:32;;;;;;;13.17;5.07;;;14.60;99.90;;;;;;5015667;28;20064;-73
2022/05/11 05:53:58;;;;;;;11.57;5.50;;;14.70;99.90;;;;;;5015705;28;20277;-73
2022/05/11 05:56:23;;;;;;;14.00;5.80;;;14.70;99.90;;;;;;5016167;28;20303;-73
2022/05/11 05:58:50;;;;;;;11.97;5.07;;;14.70;99.90;;;;;;5015551;28;20046;-72
2022/05/11 06:01:16;;;;;;;13.63;5.67;;;14.80;99.90;;;;;;5015967;28;20470;-73
2022/05/11 06:03:44;;;;;;;14.30;6.00;;;14.90;99.90;;;;;;5015662;28;20740;-72
2022/05/11 06:06:10;;;;;;;13.97;5.67;;;15.00;99.90;;;;;;5014560;28;20355;-73
2022/05/11 06:08:37;;;;;;;15.57;5.93;;;15.10;99.90;;;;;;5015352;28;20277;-73
2022/05/11 06:11:03;;;;;;;13.87;5.53;;;15.30;99.90;;;;;;5013965;28;20391;-73
2022/05/11 06:13:29;;;;;;;12.13;5.70;;;15.50;99.90;;;;;;5013718;28;20330;-73
2022/05/11 06:15:56;;;;;;;15.67;5.53;;;15.60;99.90;;;;;;5015108;28;20285;-73
2022/05/11 06:18:23;;;;;;;16.70;5.70;;;15.70;99.90;;;;;;5015090;28;20038;-73
2022/05/11 06:20:51;;;;;;;20.07;4.77;;;15.80;99.90;;;;;;5015150;28;20316;-73
2022/05/11 06:23:21;;;;;;;13.97;4.43;;;15.90;99.90;;;;;;5013660;28;20649;-72
2022/05/11 06:25:50;;;;;;;17.43;4.67;;;16.00;99.90;;;;;;5014994;28;20277;-73
2022/05/11 06:28:18;;;;;;;19.37;5.07;;;16.10;99.90;;;;;;5014937;28;20288;-73
2022/05/11 06:30:45;;;;;;;15.83;5.03;;;16.10;99.90;;;;;;5014901;28;20656;-73
2022/05/11 06:33:10;;;;;;;15.53;4.87;;;16.00;99.90;;;;;;5014885;28;20610;-72
2022/05/11 06:35:36;;;;;;;16.60;4.77;;;15.90;99.90;;;;;;5015123;28;20364;-72
2022/05/11 06:38:04;;;;;;;14.77;4.20;;;15.90;99.90;;;;;;5015051;28;20465;-72
2022/05/11 06:40:30;;;;;;;16.17;4.37;;;15.80;99.90;;;;;;5015396;28;20123;-72
2022/05/11 06:42:56;;;;;;;18.50;5.17;;;15.70;99.90;;;;;;5014761;28;20280;-72
2022/05/11 06:45:23;;;;;;;15.90;4.13;;;15.70;99.90;;;;;;5013448;28;20532;-73
2022/05/11 06:47:49;;;;;;;14.60;4.13;;;15.70;99.90;;;;;;5014651;28;20280;-73
2022/05/11 06:50:16;;;;;;;22.87;4.33;;;15.70;99.90;;;;;;5014542;28;20284;-73
2022/05/11 06:52:42;;;;;;;11.47;3.20;;;15.80;99.90;;;;;;5014510;28;20280;-72
2022/05/11 07:00:38;;;;;;;15.57;4.70;;;16.00;99.90;;;;;;5014331;28;20649;-72
2022/05/11 07:03:05;;;;;;;16.43;4.23;;;16.10;99.90;;;;;;5014914;28;20276;-74
2022/05/11 07:05:32;;;;;;;14.10;4.50;;;16.10;99.90;;;;;;5013182;28;20058;-74
2022/05/11 07:07:59;;;;;;;13.67;4.43;;;16.20;99.90;;;;;;5014261;28;20284;-76
2022/05/11 07:10:25;;;;;;;16.00;4.63;;;16.30;99.90;;;;;;5015003;28;20339;-74
2022/05/11 07:12:50;;;;;;;16.93;4.47;;;16.40;99.90;;;;;;5014239;28;20413;-72
2022/05/11 07:15:21;;;;;;;17.97;4.83;;;16.50;99.90;;;;;;5014392;28;20049;-72
2022/05/11 07:18:05;;;;;;;19.07;4.47;;;16.60;99.90;;;;;;5014381;28;20046;-71
2022/05/11 07:20:34;;;;;;;11.83;3.83;;;16.70;99.90;;;;;;5014413;28;20342;-72
2022/05/11 07:23:05;;;;;;;13.43;4.10;;;16.70;99.90;;;;;;5014525;28;20089;-71
2022/05/11 07:25:32;;;;;;;14.73;4.03;;;16.80;99.90;;;;;;5013448;28;20132;-73
2022/05/11 07:27:59;;;;;;;16.37;4.47;;;16.90;99.90;;;;;;5013985;28;20085;-73
2022/05/11 07:30:30;;;;;;;14.13;4.23;;;17.00;99.90;;;;;;5013969;28;20296;-73
2022/05/11 07:32:57;;;;;;;19.50;4.80;;;17.30;99.90;;;;;;5013265;28;20057;-73
2022/05/11 07:35:23;;;;;;;16.17;4.70;;;17.40;99.90;;;;;;5014340;28;20052;-72
2022/05/11 07:37:49;;;;;;;11.50;3.83;;;17.60;99.90;;;;;;5014268;28;20053;-73
2022/05/11 07:40:17;;;;;;;15.20;4.13;;;17.70;99.90;;;;;;5013759;28;20486;-74
2022/05/11 07:42:44;;;;;;;19.13;4.50;;;;;;;;;;5013999;28;20508;-74
2022/05/11 07:45:11;;;;;;;15.47;4.70;;;;;;;;;;5013742;28;20045;-74
2022/05/11 07:47:38;;;;;;;17.13;3.67;;;;;;;;;;5013005;28;20600;-75
2022/05/11 07:50:05;;;;;;;22.87;5.20;;;;;;;;;;5014217;28;20401;-74
2022/05/11 07:52:31;;;;;;;17.93;4.77;;;;;;;;;;5013738;28;20050;-73
2022/05/11 07:54:57;;;;;;;16.83;4.40;;;;;;;;;;5013858;28;20410;-74
2022/05/11 08:00:08;;;;;;;14.13;4.55;;;;;;;;;;5012947;28;20552;-74
2022/05/11 08:02:35;;;;;;;16.97;4.67;;;;;;;;;;5012603;28;20081;-74
2022/05/11 08:05:06;;;;;;;16.60;5.50;;;;;;;;;;5012562;28;20053;-73
2022/05/11 08:07:51;;;;;;;20.47;4.67;;;18.20;99.90;;;;;;5013601;28;20050;-74
2022/05/11 08:10:20;;;;;;;12.77;4.07;;;18.20;99.90;;;;;;5014097;28;20064;-74
2022/05/11 08:12:46;;;;;;;20.07;5.10;;;18.30;99.90;;;;;;5013572;28;20050;-74
2022/05/11 08:15:14;;;;;;;19.50;4.80;;;18.20;99.90;;;;;;5029668;28;20104;-75
2022/05/11 08:17:42;;;;;;;17.37;5.17;;;18.30;99.90;;;;;;5046243;28;20080;-76
2022/05/11 08:20:14;;;;;;;17.37;4.97;;;18.30;99.90;;;;;;5013630;28;20042;-76
2022/05/11 08:22:41;;;;;;;17.40;4.97;;;;;;;;;;5013112;28;20486;-76
2022/05/11 08:25:08;;;;;;;15.47;4.70;;;18.60;99.90;;;;;;5011854;28;20137;-73
2022/05/11 08:27:34;;;;;;;17.03;5.00;;;18.60;99.90;;;;;;5013778;28;20050;-73
2022/05/11 08:35:43;;;;;;;12.13;4.03;;;18.70;99.90;;;;;;5013226;28;20085;-74
2022/05/11 08:38:11;;;;;;;18.27;5.53;;;18.90;99.90;;;;;;5016984;28;20081;-74
2022/05/11 08:40:40;;;;;;;19.97;4.50;;;19.00;99.90;;;;;;5017503;28;20096;-74
2022/05/11 08:43:17;;;;;;;17.70;4.77;;;19.20;99.90;;;;;;5016018;28;20427;-73
2022/05/11 08:46:39;;;;;;;19.20;5.23;;;19.00;99.90;;;;;;5017038;28;20096;-73
2022/05/11 08:49:18;;;;;;;15.97;3.73;;;19.20;99.40;;;;;;4975592;28;20050;-73
2022/05/11 08:52:02;;;;;;;19.33;4.60;;;19.20;99.90;;;;;;5016759;28;20520;-73
2022/05/11 08:55:14;;;;;;;19.45;5.15;;;19.30;99.50;;;;;;5016142;28;20124;-74
2022/05/11 08:57:41;;;;;;;17.20;5.27;;;19.20;99.60;;;;;;4994242;28;20057;-72
2022/05/11 09:00:18;;;;;;;16.03;4.33;;;19.00;99.60;;;;;;5016957;28;20504;-73
2022/05/11 09:03:11;;;;;;;18.57;4.90;;;18.90;99.50;;;;;;5017484;28;20049;-71
2022/05/11 09:05:38;;;;;;;19.57;5.10;;;18.90;99.60;;;;;;5017289;28;20125;-73
2022/05/11 09:08:06;;;;;;;21.43;4.83;;;19.10;99.90;;;;;;5048919;28;20045;-72
2022/05/11 09:10:38;;;;;;;15.70;4.23;;;19.30;99.50;;;;;;5015588;28;20076;-73
2022/05/11 09:13:09;;;;;;;18.30;5.67;;;19.50;98.70;;;;;;5016566;28;20048;-73
2022/05/11 09:15:53;;;;;;;15.30;4.53;;;19.70;98.30;;;;;;5016416;28;20060;-72
2022/05/11 09:18:31;;;;;;;16.00;4.20;;;19.70;97.60;;;;;;4999286;28;20133;-72
2022/05/11 09:20:59;;;;;;;16.63;4.90;;;;;;;;;;5016335;28;20061;-72
2022/05/11 09:23:43;;;;;;;16.83;4.20;;;19.80;99.90;;;;;;5014977;28;20057;-73
2022/05/11 09:26:12;;;;;;;14.30;4.43;;;20.00;95.10;;;;;;5049196;28;20048;-71
2022/05/11 09:28:45;;;;;;;16.97;4.67;;;20.00;94.00;;;;;;5015903;28;20791;-70
2022/05/11 09:31:22;;;;;;;18.83;4.47;;;20.00;93.70;;;;;;5016703;28;20093;-70
2022/05/11 09:34:03;;;;;;;16.50;3.90;;;20.00;94.20;;;;;;5016128;28;20057;-70
2022/05/11 09:36:40;;;;;;;16.33;3.77;;;20.10;92.60;;;;;;5016829;28;20053;-71
2022/05/11 09:39:13;;;;;;;19.80;4.97;;;20.10;91.60;;;;;;5016035;28;20052;-71
2022/05/11 09:41:41;;;;;;;15.00;4.40;;;20.10;90.90;;;;;;5016776;28;20049;-70
2022/05/11 09:44:25;;;;;;;18.30;4.13;;;20.10;91.00;;;;;;5016422;28;20085;-70
2022/05/11 09:46:52;;;;;;;15.90;3.53;;;20.10;90.90;;;;;;5015950;28;20478;-70
2022/05/11 09:49:17;;;;;;;15.40;4.20;;;20.10;90.70;;;;;;5015067;28;20547;-70
2022/05/11 09:51:46;;;;;;;17.77;4.73;;;20.00;90.50;;;;;;5016050;28;20054;-70
2022/05/11 09:54:17;;;;;;;16.40;4.70;;;20.10;88.20;;;;;;4998400;28;20117;-71
2022/05/11 09:56:52;;;;;;;15.40;4.60;;;20.20;94.90;;;;;;5014661;28;20508;-70
2022/05/11 09:59:29;;;;;;;14.68;4.15;;;20.20;86.20;;;;;;5016046;28;20057;-70
2022/05/11 10:02:01;;;;;;;19.13;4.60;;;20.20;83.60;;;;;;5015655;28;20516;-73
2022/05/11 10:05:07;;;;;;;11.53;3.13;;;20.20;83.10;;;;;;5016111;28;20092;-70
2022/05/11 10:07:56;;;;;;;;;;;20.10;79.70;;;;;;5003825;28;20065;-71
2022/05/11 10:10:36;;;;;;;14.93;4.13;;;20.00;83.80;;;;;;4996058;28;19921;-71
2022/05/11 10:13:27;;;;;;;14.73;3.70;;;20.00;84.50;;;;;;5015434;28;20478;-72
2022/05/11 10:22:02;;;;;;;16.73;3.93;;;19.90;79.80;;;;;;5015201;28;20202;-70
2022/05/11 10:24:46;;;;;;;15.10;3.40;;;19.90;77.50;;;;;;5013868;28;20133;-70
2022/05/11 10:27:20;;;;;;;14.03;3.07;;;19.90;80.20;;;;;;5015111;28;20046;-71
2022/05/11 10:29:59;;;;;;;10.23;3.00;;;19.80;78.60;;;;;;5015062;28;20352;-69
2022/05/11 10:32:48;;;;;;;25.57;3.93;;;19.80;79.40;;;;;;5014760;28;20089;-69
2022/05/11 10:35:36;;;;;;;14.90;3.97;;;19.80;79.80;;;;;;5015482;28;20058;-70
2022/05/11 10:38:11;;;;;;;33.43;3.70;;;19.80;80.60;;;;;;5015633;28;20050;-70
2022/05/11 10:40:46;;;;;;;67.83;4.73;;;19.90;81.50;;;;;;5013702;28;20131;-69
2022/05/11 10:43:29;;;;;;;12.83;3.33;;;20.00;79.30;;;;;;5013782;28;20062;-71
2022/05/11 10:46:14;;;;;;;15.90;3.80;;;20.10;79.00;;;;;;5013754;28;20042;-72
2022/05/11 10:49:01;;;;;;;17.00;3.67;;;20.30;87.40;;;;;;5014972;28;20042;-72
2022/05/11 10:51:51;;;;;;;13.70;3.37;;;20.40;85.50;;;;;;5013920;28;20054;-72
2022/05/11 10:54:26;;;;;;;18.43;3.97;;;20.30;87.20;;;;;;5013948;28;20045;-71
2022/05/11 10:57:02;;;;;;;;;;;20.30;84.30;;;;;;5015200;28;20053;-71
2022/05/11 10:59:49;;;;;;;15.87;4.57;;;20.20;87.90;;;;;;5013897;28;19921;-71
2022/05/11 11:02:52;;;;;;;15.03;4.17;;;20.30;85.80;;;;;;5014203;28;20132;-71
2022/05/11 11:05:39;;;;;;;17.13;3.83;;;20.20;86.20;;;;;;5013443;28;20054;-75
2022/05/11 11:08:26;;;;;;;12.43;3.47;;;20.30;84.70;;;;;;5013904;28;20060;-72
2022/05/11 11:11:01;;;;;;;15.53;4.03;;;20.20;84.50;;;;;;5014066;28;20065;-71
2022/05/11 11:14:00;;;;;;;21.25;5.25;;;20.20;86.00;;;;;;5014352;28;20125;-74
2022/05/11 11:16:35;;;;;;;16.17;3.80;;;20.20;86.20;;;;;;5014309;28;20099;-70
2022/05/11 11:19:03;;;;;;;18.30;4.47;;;20.10;87.70;;;;;;5012862;28;20148;-75
2022/05/11 11:21:30;;;;;;;16.03;3.80;;;20.00;89.00;;;;;;5014203;28;20103;-73
2022/05/11 11:24:17;;;;;;;19.40;5.40;;;20.00;90.80;;;;;;5014494;28;20168;-73
2022/05/11 11:26:54;;;;;;;14.93;4.67;;;20.00;90.30;;;;;;4996956;28;20065;-71
2022/05/11 11:29:23;;;;;;;14.60;4.37;;;19.90;91.60;;;;;;5013027;28;20107;-74
2022/05/11 11:31:58;;;;;;;13.93;4.10;;;19.90;92.30;;;;;;5014347;28;20050;-72
2022/05/11 11:34:46;;;;;;;16.80;4.17;;;19.90;92.20;;;;;;5013037;28;20053;-72
2022/05/11 11:37:31;;;;;;;17.83;4.53;;;19.90;92.50;;;;;;4993285;28;20057;-72
2022/05/11 11:40:21;;;;;;;18.30;4.90;;;19.90;92.50;;;;;;5013449;28;20050;-72
2022/05/11 11:42:47;;;;;;;19.50;4.83;;;19.80;95.40;;;;;;5013885;28;20057;-72
2022/05/11 11:45:26;;;;;;;17.97;4.30;;;19.60;92.20;;;;;;5014299;28;20130;-73
2022/05/11 11:48:17;;;;;;;15.40;3.87;;;19.50;92.10;;;;;;5014241;28;20371;-73
2022/05/11 11:50:53;;;;;;;18.67;5.27;;;19.40;92.40;;;;;;5004426;28;20148;-72
2022/05/11 11:53:42;;;;;;;16.80;4.70;;;19.40;93.00;;;;;;5014535;28;20052;-72
2022/05/11 11:56:23;;;;;;;14.93;4.17;;;19.50;93.50;;;;;;5013965;28;20123;-72
2022/05/11 11:59:24;;;;;;;17.73;4.43;;;19.40;93.70;;;;;;5013563;28;20100;-72
2022/05/11 12:01:55;;;;;;;17.13;4.30;;;19.60;92.80;;;;;;5014432;28;20046;-72
2022/05/11 12:04:35;;;;;;;15.50;3.97;;;19.70;92.30;;;;;;5013884;28;20414;-71
2022/05/11 12:16:28;;;;;;;13.67;3.70;;;20.10;83.50;;;;;;5018067;28;20050;-71
2022/05/11 12:19:11;;;;;;;18.93;4.30;;;20.30;91.20;;;;;;5017372;28;20038;-72
2022/05/11 12:21:40;;;;;;;13.53;3.97;;;20.40;85.10;;;;;;5050224;28;20056;-72
2022/05/11 12:24:18;;;;;;;17.93;3.67;;;20.40;92.70;;;;;;5017220;28;20208;-72
2022/05/11 12:26:54;;;;;;;16.80;4.43;;;20.40;87.70;;;;;;5017966;28;20054;-72
2022/05/11 12:32:07;;;;;;;12.73;3.40;;;20.40;78.40;;;;;;5016235;28;20474;-72
2022/05/11 12:34:40;;;;;;;16.53;4.17;;;20.30;78.60;;;;;;5017650;28;20049;-72
2022/05/11 12:37:28;;;;;;;15.43;3.27;;;20.30;78.10;;;;;;5000852;28;20386;-72
2022/05/11 12:40:15;;;;;;;16.87;3.97;;;20.20;76.90;;;;;;5017793;28;20111;-72
2022/05/11 12:42:41;;;;;;;15.33;4.00;;;20.20;77.50;;;;;;5017039;28;20494;-72
2022/05/11 12:45:10;;;;;;;16.13;4.53;;;20.10;76.70;;;;;;5016929;28;20046;-72
2022/05/11 12:47:42;;;;;;;13.93;3.33;;;20.10;77.60;;;;;;5049056;28;20049;-76
2022/05/11 12:50:17;;;;;;;15.27;4.33;;;20.10;78.20;;;;;;5017370;28;20053;-74
2022/05/11 12:52:43;;;;;;;14.50;3.43;;;20.10;76.40;;;;;;5015911;28;20465;-73
2022/05/11 12:55:09;;;;;;;13.50;3.73;;;20.10;75.50;;;;;;5016708;28;20046;-75
2022/05/11 12:57:41;;;;;;;17.17;3.50;;;20.00;74.90;;;;;;5015682;28;20062;-74
2022/05/11 13:00:17;;;;;;;13.40;3.43;;;20.00;76.20;;;;;;5016222;28;20050;-82
2022/05/11 13:02:44;;;;;;;13.53;4.07;;;20.00;75.50;;;;;;5016695;28;20099;-73
2022/05/11 13:05:14;;;;;;;11.93;3.97;;;20.00;76.50;;;;;;4999278;28;20056;-76
2022/05/11 13:07:45;;;;;;;13.43;3.37;;;20.00;77.00;;;;;;5032341;28;20057;-75
2022/05/11 13:10:33;;;;;;;10.77;3.30;;;20.00;78.70;;;;;;5017325;28;20056;-74
2022/05/11 13:13:00;;;;;;;14.63;3.97;;;20.00;80.40;;;;;;5016732;28;20058;-75
2022/05/11 13:15:40;;;;;;;12.60;4.00;;;20.00;78.80;;;;;;5017112;28;20052;-74
2022/05/11 13:18:24;;;;;;;13.77;3.53;;;20.00;76.70;;;;;;5015295;28;20529;-74
2022/05/11 13:20:52;;;;;;;14.83;4.30;;;20.00;76.10;;;;;;5015424;28;20052;-70
2022/05/11 13:23:35;;;;;;;24.63;4.43;;;20.00;77.70;;;;;;5015115;28;20119;-69
2022/05/11 13:26:29;;;;;;;19.60;5.80;;;20.00;80.90;;;;;;5015358;28;20066;-70
2022/05/11 13:29:01;;;;;;;18.35;5.32;;;19.90;83.70;;;;;;5011207;28;20049;-70
2022/05/11 13:31:33;;;;;;;17.17;4.77;;;20.00;94.00;;;;;;5016133;28;20053;-69
2022/05/11 13:34:01;;;;;;;16.07;4.47;;;19.90;93.80;;;;;;5016380;28;20096;-70
2022/05/11 13:36:37;;;;;;;13.47;4.03;;;20.00;93.00;;;;;;5016814;28;20046;-68
2022/05/11 13:39:12;;;;;;;12.13;3.97;;;20.10;92.30;;;;;;5015495;28;20446;-69
2022/05/11 13:41:41;;;;;;;14.67;3.67;;;20.20;92.40;;;;;;5015021;28;20084;-70